The latest weather and runway conditions for major airports within the Toronto FIR.

CYYZ – Toronto-Lester B. Pearson International      ATIS Currently Online:  Information Q
CYYZ information Q weather at 1800Z , Wind 260 at 13 gusting 19,
Visibility 15 , few clouds at 1500 6300 scattered 8400
broken temperature 4 dew point -1 , Altimeter 2991 , Approach
ils runway 24R , Departure runway 23 ,
Advise ATC that you have information Q .
CYOW – Ottawa Macdonald-Cartier International
CYOW 201900Z 28010KT 15SM SCT020 M06/M10 A2990 RMK CU3 SLP133

Suggested Runway: 25
CYTZ – Billy Bishop Toronto City
CYTZ 201900Z AUTO 23012KT 9SM FEW085 05/M01 A2991 RMK SLP132

Suggested Runway: 26
CYXU – London International
CYXU 201900Z 20012G20KT 15SM FEW082 BKN280 06/M02 A2989 RMK AC1CI6 AC TR TCU TOPS DIST S SLP133

Suggested Runway: 15
CYHM – John C. Munro Hamilton International
CYHM 201900Z 24017G25KT 15SM SCT025 SCT032 BKN250 06/00 A2990 RMK CU3SC1CC2 SLP135

Suggested Runway: 30
CYKF – Region of Waterloo International
CYKF 201900Z AUTO 22014G19KT 9SM FEW130 04/M01 A2988 RMK SLP130

Suggested Runway: 26
CYAM – Sault Ste. Marie
CYAM 201900Z 11006KT 15SM BKN022 OVC120 02/M03 A2971 RMK SC7AC1 SLP072

Suggested Runway: 12
CYTR – Canadian Forces Base Trenton
CYTR 201900Z 27014G21KT 15SM BKN032 BKN056 04/M03 A2990 RMK SC5SC2 SLP128

Suggested Runway: 24